Terminal Aerodrome Forecast
Issued by NWS

Home | Current Version | Previous Version | Text Only | Print | Product List | Glossary On
Versions: 1 2 3 4 5 6 7 8 9 10 11 12 13 14 15 16 17 18 19 20 21 22
000
FTUS41 KOKX 210244 AAC
TAFSWF
TAF AMD
KSWF 210244Z 2103/2206 09005KT 1SM BR OVC003
      TEMPO 2103/2106 2SM SHRA
     FM210600 VRB03KT 1/2SM -DZ FG OVC002
      TEMPO 2106/2110 1/4SM -DZ FG
     FM211000 28007KT 4SM BR BKN025
     FM211500 28014G21KT P6SM SCT050
     FM212300 26009KT P6SM FEW050
      AMD NOT SKED=

USA.gov is the U.S. government's official web portal to all federal, state and local government web resources and services.